Time;durP1;ratioP1;P1;durP2;ratioP2;P2;SDS_P1;SDS_P2;PMS_P1;PMS_P2;Temp;Humidity;BMP_temperature;BMP_pressure;BME280_temperature;BME280_humidity;BME280_pressure;Samples;Min_cycle;Max_cycle;Signal;HPM_P1;HPM_P2
2023/07/08 00:00:47;;;;;;;4.10;3.20;;;;;;;23.06;72.80;98694.69;78328;1298;3050497;-61
2023/07/08 00:03:14;;;;;;;5.10;3.10;;;;;;;22.78;74.07;98698.09;79486;1294;3011847;-65
2023/07/08 00:05:41;;;;;;;5.50;3.00;;;;;;;22.56;74.94;98691.52;79406;1295;3013353;-64
2023/07/08 00:08:16;;;;;;;8.00;2.90;;;;;;;22.37;75.89;98685.82;78319;1298;3048814;-65
2023/07/08 00:10:43;;;;;;;3.10;2.10;;;;;;;22.25;76.53;98681.73;79467;1296;3011810;-66
2023/07/08 00:13:11;;;;;;;8.60;2.40;;;;;;;22.63;74.88;98676.16;78256;1298;3052114;-60
2023/07/08 00:15:38;;;;;;;5.40;2.20;;;;;;;22.74;74.00;98678.10;79423;1298;3013424;-63
2023/07/08 00:18:12;;;;;;;3.70;2.10;;;;;;;22.67;74.21;98665.36;79386;1298;3011602;-63
2023/07/08 00:20:49;;;;;;;5.90;2.60;;;;;;;22.48;74.71;98663.96;78245;1295;3047930;-62
2023/07/08 00:23:21;;;;;;;5.40;2.80;;;;;;;22.32;75.31;98655.34;78224;1298;3053857;-61
2023/07/08 00:25:48;;;;;;;3.10;2.40;;;;;;;22.22;75.53;98659.08;79502;1296;3012052;-61
2023/07/08 00:28:17;;;;;;;3.30;1.80;;;;;;;22.13;75.39;98667.46;78235;1298;3028634;-62
2023/07/08 00:30:44;;;;;;;7.10;1.90;;;;;;;22.10;75.67;98654.42;79390;1300;3012693;-61
2023/07/08 00:33:11;;;;;;;3.10;1.70;;;;;;;22.49;74.00;98664.94;79433;1296;3011529;-61
2023/07/08 00:35:44;;;;;;;3.80;2.10;;;;;;;22.56;73.19;98660.34;78088;1299;3056144;-62
2023/07/08 00:38:33;;;;;;;6.10;2.00;;;;;;;22.54;73.12;98656.25;79421;1294;3013695;-64
2023/07/08 00:41:16;;;;;;;5.70;2.20;;;;;;;22.35;73.39;98648.99;78250;1296;3054214;-62
2023/07/08 00:43:52;;;;;;;2.40;1.70;;;;;;;22.19;73.71;98638.80;78194;1298;3050410;-61
2023/07/08 00:46:29;;;;;;;3.60;2.00;;;;;;;22.11;73.91;98634.80;78203;1298;3052689;-63
2023/07/08 00:49:06;;;;;;;3.40;1.80;;;;;;;22.02;74.14;98631.60;78920;1298;3012072;-64
2023/07/08 00:51:37;;;;;;;2.80;1.60;;;;;;;22.00;74.24;98626.23;78241;1298;3052833;-64
2023/07/08 00:54:05;;;;;;;3.40;1.40;;;;;;;22.38;72.95;98637.31;79473;1298;3013592;-62
2023/07/08 00:56:47;;;;;;;3.10;1.80;;;;;;;22.54;72.00;98638.02;78128;1300;3050596;-62
2023/07/08 00:59:21;;;;;;;3.30;1.80;;;;;;;22.50;72.23;98641.47;78105;1301;3056856;-61
2023/07/08 01:01:48;;;;;;;4.80;1.80;;;;;;;22.42;72.35;98631.54;79489;1298;3013061;-61
2023/07/08 01:04:20;;;;;;;3.20;1.90;;;;;;;22.26;72.90;98630.61;78223;1296;3026707;-61
2023/07/08 01:06:57;;;;;;;2.10;1.60;;;;;;;22.14;73.36;98624.30;79441;1298;3011663;-63
2023/07/08 01:09:30;;;;;;;6.10;2.00;;;;;;;22.09;73.77;98630.20;78070;1301;3053292;-62
2023/07/08 01:11:58;;;;;;;4.80;1.90;;;;;;;21.97;74.25;98630.59;79458;1298;3012169;-64
2023/07/08 01:14:31;;;;;;;1.90;1.30;;;;;;;21.83;75.35;98628.27;78222;1298;3068751;-63
2023/07/08 01:16:58;;;;;;;6.40;1.60;;;;;;;22.26;73.76;98634.02;79397;1295;3012903;-62
2023/07/08 01:19:33;;;;;;;6.40;1.90;;;;;;;22.46;72.93;98638.14;78123;1301;3026772;-64
2023/07/08 01:22:03;;;;;;;4.10;1.80;;;;;;;22.30;73.28;98625.44;78675;1300;3011780;-61
2023/07/08 01:24:32;;;;;;;4.10;1.90;;;;;;;22.16;74.00;98625.02;79544;1298;3013717;-63
2023/07/08 01:27:00;;;;;;;7.30;2.10;;;;;;;22.07;74.51;98623.61;79456;1294;3011940;-63
2023/07/08 01:29:28;;;;;;;2.90;2.00;;;;;;;21.93;75.34;98621.63;78165;1298;3051633;-61
2023/07/08 01:31:58;;;;;;;3.50;2.20;;;;;;;21.90;75.63;98610.40;79454;1298;3012808;-63
2023/07/08 01:34:27;;;;;;;2.80;1.80;;;;;;;21.85;76.07;98607.46;78252;1298;3053220;-62
2023/07/08 01:36:55;;;;;;;3.70;1.80;;;;;;;22.25;74.83;98613.11;79502;1295;3011607;-62
2023/07/08 01:39:23;;;;;;;2.50;2.00;;;;;;;22.30;74.26;98611.48;79430;1296;3013840;-62
2023/07/08 01:41:51;;;;;;;4.20;1.90;;;;;;;22.10;75.22;98607.92;78295;1298;3051099;-61
2023/07/08 01:44:26;;;;;;;5.80;2.30;;;;;;;22.08;75.29;98602.80;79605;1298;3012694;-61
2023/07/08 01:46:56;;;;;;;4.00;2.40;;;;;;;22.06;75.33;98602.33;78194;1294;3069042;-62
2023/07/08 01:49:23;;;;;;;4.70;2.50;;;;;;;21.87;76.40;98598.23;79602;1296;3013695;-61
2023/07/08 01:51:50;;;;;;;2.90;1.70;;;;;;;21.75;77.25;98595.12;79284;1295;3013077;-64
2023/07/08 01:54:20;;;;;;;4.40;2.10;;;;;;;22.20;75.51;98597.78;78109;1300;3054016;-63
2023/07/08 01:56:51;;;;;;;2.70;2.00;;;;;;;22.36;74.70;98596.89;79437;1308;3018632;-63
2023/07/08 01:59:19;;;;;;;4.50;2.30;;;;;;;22.40;74.27;98592.38;78086;1301;3053293;-61
2023/07/08 02:01:47;;;;;;;2.80;2.50;;;;;;;22.18;75.23;98595.95;79279;1300;3018214;-61
2023/07/08 02:04:14;;;;;;;2.40;2.10;;;;;;;22.09;75.62;98585.90;79415;1295;3012245;-62
2023/07/08 02:06:43;;;;;;;5.00;2.50;;;;;;;22.01;76.00;98580.87;78211;1298;3049198;-63
2023/07/08 02:09:10;;;;;;;4.60;2.20;;;;;;;21.83;76.89;98572.69;79531;1295;3011651;-61
2023/07/08 02:11:40;;;;;;;5.00;2.50;;;;;;;22.16;75.88;98571.77;78908;1298;3013027;-62
2023/07/08 02:14:07;;;;;;;3.80;2.30;;;;;;;22.32;75.00;98569.08;79263;1300;3014076;-63
2023/07/08 02:16:34;;;;;;;2.60;2.10;;;;;;;22.29;75.21;98566.22;79308;1295;3013396;-63
2023/07/08 02:19:02;;;;;;;2.60;2.40;;;;;;;22.26;75.34;98564.27;78012;1301;3051898;-62
2023/07/08 02:21:30;;;;;;;4.40;2.90;;;;;;;22.17;75.56;98569.94;79263;1296;3019125;-63
2023/07/08 02:23:57;;;;;;;5.30;2.50;;;;;;;21.96;76.61;98574.11;79332;1296;3011938;-63
2023/07/08 02:26:26;;;;;;;9.00;2.60;;;;;;;21.87;77.31;98573.27;78138;1298;3049410;-62
2023/07/08 02:28:54;;;;;;;9.00;2.30;;;;;;;22.25;75.87;98576.28;79353;1298;3012967;-63
2023/07/08 02:31:27;;;;;;;7.40;2.60;;;;;;;22.32;75.25;98577.16;78791;1309;3011796;-63
2023/07/08 02:33:53;;;;;;;5.40;2.30;;;;;;;22.39;74.83;98577.25;79265;1301;3011663;-60
2023/07/08 02:36:22;;;;;;;6.30;2.40;;;;;;;22.20;75.72;98573.88;78155;1298;3028212;-60
2023/07/08 02:38:48;;;;;;;6.50;2.90;;;;;;;22.14;76.01;98573.44;79327;1298;3018479;-64
2023/07/08 02:41:15;;;;;;;4.00;2.50;;;;;;;22.13;76.17;98576.55;79322;1298;3012743;-63
2023/07/08 02:43:43;;;;;;;5.00;2.00;;;;;;;22.13;76.29;98574.55;78186;1298;3028107;-61
2023/07/08 02:46:10;;;;;;;7.20;2.30;;;;;;;22.43;75.08;98565.85;82101;1298;3018119;-62
2023/07/08 02:48:36;;;;;;;7.00;2.80;;;;;;;22.58;74.34;98568.83;81973;1300;3011346;-62
2023/07/08 02:51:05;;;;;;;4.90;3.40;;;;;;;22.55;74.59;98571.23;80810;1295;3026026;-62
2023/07/08 02:53:31;;;;;;;8.50;3.80;;;;;;;22.57;74.42;98579.19;82106;1294;3013249;-63
2023/07/08 02:55:58;;;;;;;8.80;3.90;;;;;;;22.50;74.67;98573.45;81932;1295;3011368;-61
2023/07/08 02:58:29;;;;;;;10.90;4.70;;;;;;;22.43;74.91;98572.48;80813;1295;3040281;-63
2023/07/08 03:01:00;;;;;;;12.00;5.20;;;;;;;22.32;75.58;98567.91;81995;1300;3012508;-62
2023/07/08 03:03:31;;;;;;;12.60;4.00;;;;;;;22.34;75.43;98570.86;80839;1296;3060168;-61
2023/07/08 03:06:02;;;;;;;7.00;3.40;;;;;;;22.35;75.68;98574.56;82066;1294;3011169;-61
2023/07/08 03:08:31;;;;;;;12.40;3.60;;;;;;;22.84;73.88;98581.88;80822;1295;3047979;-62
2023/07/08 03:11:02;;;;;;;9.70;3.70;;;;;;;23.14;72.63;98579.55;82091;1296;3018262;-62
2023/07/08 03:13:31;;;;;;;10.20;3.50;;;;;;;23.05;73.06;98583.36;80724;1295;3049830;-61
2023/07/08 03:15:59;;;;;;;6.00;3.10;;;;;;;22.99;73.25;98584.27;82077;1295;3013334;-61
2023/07/08 03:18:29;;;;;;;10.20;4.00;;;;;;;22.92;73.52;98586.77;81543;1295;3011304;-63
2023/07/08 03:20:56;;;;;;;9.50;3.60;;;;;;;22.74;74.44;98588.81;82070;1295;3013144;-62
2023/07/08 03:23:26;;;;;;;9.20;4.30;;;;;;;22.53;75.34;98578.23;81996;1295;3011419;-64
2023/07/08 03:25:54;;;;;;;10.30;4.70;;;;;;;22.54;75.64;98582.80;80733;1294;3048541;-62
2023/07/08 03:28:21;;;;;;;8.90;2.90;;;;;;;22.61;75.40;98589.03;82036;1295;3012631;-62
2023/07/08 03:30:52;;;;;;;8.80;3.20;;;;;;;23.07;74.00;98578.81;82075;1298;3011146;-61
2023/07/08 03:33:20;;;;;;;4.40;3.10;;;;;;;23.42;72.32;98572.94;80756;1300;3043098;-62
2023/07/08 03:35:47;;;;;;;5.30;3.20;;;;;;;23.42;72.01;98573.52;82107;1295;3018250;-62
2023/07/08 03:38:13;;;;;;;6.50;3.60;;;;;;;23.28;72.71;98573.23;82004;1295;3012913;-62
2023/07/08 03:40:41;;;;;;;7.70;4.00;;;;;;;23.19;73.13;98576.11;80731;1295;3026307;-61
2023/07/08 03:43:08;;;;;;;5.20;3.40;;;;;;;23.08;73.67;98589.08;82100;1295;3012864;-61
2023/07/08 03:45:36;;;;;;;7.90;4.00;;;;;;;23.02;74.16;98590.86;82029;1299;3012706;-62
2023/07/08 03:48:04;;;;;;;7.00;3.90;;;;;;;22.85;74.76;98588.73;80769;1295;3044693;-63
2023/07/08 03:50:31;;;;;;;9.10;4.30;;;;;;;22.83;75.28;98585.75;82019;1296;3018065;-63
2023/07/08 03:52:57;;;;;;;4.80;2.70;;;;;;;22.97;74.65;98587.92;82025;1295;3012950;-64
2023/07/08 03:55:28;;;;;;;8.60;3.40;;;;;;;23.53;72.76;98583.63;80689;1295;3040610;-61
2023/07/08 03:57:55;;;;;;;6.50;3.80;;;;;;;23.96;71.01;98581.16;82047;1295;3012839;-63
2023/07/08 04:00:22;;;;;;;5.60;3.70;;;;;;;23.89;71.01;98580.30;82014;1299;3012890;-65
2023/07/08 04:02:50;;;;;;;5.60;3.40;;;;;;;24.06;70.32;98571.13;80784;1300;3051973;-63
2023/07/08 04:05:21;;;;;;;9.70;3.90;;;;;;;23.88;70.90;98569.04;82101;1296;3011251;-63
2023/07/08 04:07:49;;;;;;;7.90;4.00;;;;;;;23.78;71.47;98574.90;80810;1298;3026328;-66
2023/07/08 04:10:16;;;;;;;6.00;4.30;;;;;;;23.80;71.35;98576.29;82101;1296;3013223;-62
2023/07/08 04:12:43;;;;;;;9.70;4.40;;;;;;;23.64;71.96;98578.33;82090;1296;3011793;-63
2023/07/08 04:15:11;;;;;;;5.30;4.20;;;;;;;23.52;72.71;98570.72;80813;1296;3027389;-63
2023/07/08 04:17:41;;;;;;;6.00;4.40;;;;;;;23.59;72.69;98576.29;82112;1295;3012663;-62
2023/07/08 04:20:10;;;;;;;6.80;3.00;;;;;;;23.61;72.93;98575.23;80812;1300;3068733;-62
2023/07/08 04:22:37;;;;;;;8.70;3.60;;;;;;;24.12;71.39;98569.36;82129;1295;3012713;-61
2023/07/08 04:25:04;;;;;;;4.40;3.90;;;;;;;24.54;70.11;98566.96;82088;1295;3011263;-63
2023/07/08 04:27:32;;;;;;;5.00;4.30;;;;;;;24.74;68.81;98566.82;80806;1295;3053101;-62
2023/07/08 04:29:59;;;;;;;6.80;4.00;;;;;;;24.63;69.10;98563.21;82111;1295;3018637;-63
2023/07/08 04:32:25;;;;;;;8.80;4.40;;;;;;;24.53;69.29;98560.98;82106;1295;3011468;-62
2023/07/08 04:34:53;;;;;;;8.30;4.30;;;;;;;24.46;69.50;98562.20;80829;1298;3026259;-62
2023/07/08 04:37:20;;;;;;;9.50;5.10;;;;;;;24.52;69.49;98557.00;82077;1295;3012760;-63
2023/07/08 04:39:46;;;;;;;8.20;4.90;;;;;;;24.38;70.06;98551.91;82092;1295;3011093;-63
2023/07/08 04:42:17;;;;;;;7.50;4.80;;;;;;;24.39;69.79;98554.18;80820;1298;3026273;-62
2023/07/08 04:44:49;;;;;;;9.60;5.10;;;;;;;24.23;70.76;98548.63;82088;1298;3011241;-64
2023/07/08 04:47:20;;;;;;;8.60;5.20;;;;;;;24.29;70.38;98547.73;80840;1295;3052562;-64
2023/07/08 04:49:47;;;;;;;5.80;4.60;;;;;;;24.36;70.43;98549.59;82089;1295;3011323;-64
2023/07/08 04:52:15;;;;;;;8.50;5.20;;;;;;;24.50;69.72;98549.98;81578;1295;3011121;-62
2023/07/08 04:54:42;;;;;;;10.30;5.40;;;;;;;24.45;69.96;98545.59;82081;1295;3018045;-66
2023/07/08 04:57:08;;;;;;;10.60;5.10;;;;;;;24.51;69.78;98544.98;82075;1294;3011272;-63
2023/07/08 04:59:36;;;;;;;8.60;5.80;;;;;;;24.66;68.93;98542.79;80822;1295;3027863;-64
2023/07/08 05:02:03;;;;;;;8.00;5.90;;;;;;;24.84;68.31;98542.02;82085;1298;3018081;-64
2023/07/08 05:04:30;;;;;;;6.90;5.60;;;;;;;24.99;67.87;98541.11;82071;1295;3011369;-63
2023/07/08 05:06:57;;;;;;;9.60;5.60;;;;;;;25.03;67.46;98531.96;80808;1294;3025933;-63
2023/07/08 05:09:25;;;;;;;8.30;5.70;;;;;;;25.09;67.34;98531.15;82085;1295;3018254;-62
2023/07/08 05:11:52;;;;;;;7.50;5.90;;;;;;;25.23;66.59;98528.60;82091;1295;3011405;-63
2023/07/08 05:14:23;;;;;;;8.40;5.70;;;;;;;25.26;66.48;98530.78;80820;1295;3052040;-63
2023/07/08 05:16:50;;;;;;;10.50;5.30;;;;;;;25.36;65.93;98529.79;82097;1295;3013143;-62
2023/07/08 05:19:16;;;;;;;8.70;5.50;;;;;;;25.46;65.52;98521.20;82068;1295;3011498;-62
2023/07/08 05:21:45;;;;;;;11.20;6.10;;;;;;;25.52;65.60;98525.67;80804;1295;3025796;-62
2023/07/08 05:24:11;;;;;;;7.00;5.90;;;;;;;25.54;65.52;98531.45;82110;1295;3018846;-63
2023/07/08 05:26:38;;;;;;;10.70;5.80;;;;;;;25.73;64.69;98526.29;82084;1295;3011356;-65
2023/07/08 05:29:06;;;;;;;9.80;6.20;;;;;;;25.77;64.15;98526.19;80813;1295;3026559;-62
2023/07/08 05:31:33;;;;;;;11.60;5.60;;;;;;;25.79;63.96;98528.12;82105;1295;3017869;-62
2023/07/08 05:33:59;;;;;;;8.70;6.20;;;;;;;25.88;63.41;98534.11;82072;1298;3011479;-62
2023/07/08 05:36:27;;;;;;;14.30;6.00;;;;;;;25.92;63.06;98537.31;80825;1295;3025984;-61
2023/07/08 05:38:53;;;;;;;8.70;5.70;;;;;;;25.98;62.89;98535.88;82117;1295;3014071;-64
2023/07/08 05:41:20;;;;;;;9.90;5.70;;;;;;;25.98;63.08;98529.27;82087;1295;3010960;-63
2023/07/08 05:43:48;;;;;;;7.60;5.50;;;;;;;26.05;62.90;98531.56;80830;1295;3027623;-60
2023/07/08 05:46:14;;;;;;;8.10;6.00;;;;;;;26.16;62.55;98528.45;82079;1295;3012538;-62
2023/07/08 05:48:41;;;;;;;8.70;6.00;;;;;;;26.24;62.26;98533.55;82092;1295;3011222;-63
2023/07/08 05:51:09;;;;;;;6.90;5.60;;;;;;;26.33;61.96;98529.80;80822;1296;3026419;-62
2023/07/08 05:53:35;;;;;;;9.70;6.20;;;;;;;26.36;61.41;98525.45;82106;1295;3012744;-62
2023/07/08 05:56:02;;;;;;;10.10;5.90;;;;;;;26.45;61.07;98533.77;82099;1295;3011409;-63
2023/07/08 05:58:30;;;;;;;9.20;5.60;;;;;;;26.51;60.88;98532.02;80832;1295;3026458;-61
2023/07/08 06:00:57;;;;;;;11.00;6.00;;;;;;;26.65;60.57;98533.86;82106;1295;3012648;-63
2023/07/08 06:03:24;;;;;;;8.40;6.00;;;;;;;26.75;60.14;98533.19;82078;1295;3011349;-61
2023/07/08 06:05:51;;;;;;;8.30;5.50;;;;;;;26.86;59.54;98529.27;80828;1295;3026577;-63
2023/07/08 06:08:20;;;;;;;8.20;5.60;;;;;;;26.97;58.64;98524.81;82110;1295;3011334;-63
2023/07/08 06:10:46;;;;;;;7.10;5.30;;;;;;;27.01;58.09;98528.21;82115;1298;3011220;-62
2023/07/08 06:13:14;;;;;;;8.40;5.90;;;;;;;27.02;58.04;98525.67;80824;1295;3053835;-62
2023/07/08 06:15:41;;;;;;;7.70;6.20;;;;;;;27.05;57.73;98529.22;82134;1295;3013384;-63
2023/07/08 06:18:08;;;;;;;11.70;7.10;;;;;;;27.20;57.34;98519.14;82118;1295;3011271;-63
2023/07/08 06:20:36;;;;;;;14.30;6.80;;;;;;;27.20;57.00;98509.31;80826;1294;3027337;-62
2023/07/08 06:23:02;;;;;;;10.90;7.60;;;;;;;27.35;56.72;98503.14;82097;1295;3012708;-64
2023/07/08 06:25:29;;;;;;;13.50;7.90;;;;;;;27.34;56.17;98494.77;82052;1295;3011299;-63
2023/07/08 06:27:57;;;;;;;10.40;7.20;;;;;;;27.41;56.16;98499.23;80826;1294;3025817;-62
2023/07/08 06:30:25;;;;;;;12.80;6.70;;;;;;;27.50;55.94;98487.17;82090;1295;3012508;-63
2023/07/08 06:32:52;;;;;;;13.30;6.80;;;;;;;27.54;55.87;98476.77;82089;1294;3011238;-62
2023/07/08 06:35:19;;;;;;;13.10;6.90;;;;;;;27.43;56.13;98472.19;80798;1295;3068957;-61
2023/07/08 06:37:46;;;;;;;10.80;6.40;;;;;;;27.52;55.90;98479.09;82123;1294;3012281;-65
2023/07/08 06:40:12;;;;;;;13.60;5.90;;;;;;;27.66;54.78;98483.46;82123;1295;3011229;-63
2023/07/08 06:42:41;;;;;;;10.70;6.40;;;;;;;27.82;54.28;98483.93;80805;1295;3027615;-62
2023/07/08 06:45:14;;;;;;;15.70;7.00;;;;;;;27.84;54.30;98480.69;81970;1295;3011281;-62
2023/07/08 06:47:42;;;;;;;12.90;6.70;;;;;;;27.92;54.32;98476.21;80850;1295;3052243;-62
2023/07/08 06:50:08;;;;;;;10.60;6.60;;;;;;;27.96;53.79;98475.39;82080;1295;3018307;-62
2023/07/08 06:52:36;;;;;;;15.60;7.50;;;;;;;27.92;54.02;98469.67;82074;1295;3011161;-64
2023/07/08 06:55:07;;;;;;;16.90;8.30;;;;;;;27.87;53.93;98466.69;80833;1295;3055800;-62
2023/07/08 06:57:34;;;;;;;13.40;8.00;;;;;;;27.70;54.24;98465.33;82101;1294;3011150;-62
2023/07/08 07:00:03;;;;;;;11.80;7.40;;;;;;;27.56;54.82;98472.73;81557;1295;3011411;-63
2023/07/08 07:02:30;;;;;;;11.70;6.60;;;;;;;27.37;55.07;98471.88;82098;1295;3012890;-63
2023/07/08 07:04:56;;;;;;;9.40;6.10;;;;;;;27.44;54.86;98466.98;82087;1295;3011317;-65
2023/07/08 07:07:24;;;;;;;9.70;5.80;;;;;;;27.34;55.01;98469.16;80846;1295;3068243;-62
2023/07/08 07:09:51;;;;;;;15.30;5.70;;;;;;;27.41;55.36;98474.03;82109;1295;3012515;-62
2023/07/08 07:12:17;;;;;;;8.50;6.00;;;;;;;27.68;55.08;98474.88;82084;1295;3011389;-64
2023/07/08 07:14:46;;;;;;;8.80;6.10;;;;;;;27.87;54.88;98472.14;80844;1295;3053375;-62
2023/07/08 07:17:12;;;;;;;13.30;6.00;;;;;;;27.86;54.99;98468.81;82078;1298;3012671;-63
2023/07/08 07:19:39;;;;;;;9.40;6.20;;;;;;;27.90;54.64;98467.31;82103;1295;3011416;-62
2023/07/08 07:22:07;;;;;;;12.70;6.10;;;;;;;28.00;54.54;98469.62;80825;1294;3026961;-63
2023/07/08 07:24:35;;;;;;;8.90;5.70;;;;;;;27.94;54.34;98472.98;82113;1295;3012334;-68
2023/07/08 07:27:01;;;;;;;7.50;5.90;;;;;;;27.91;54.21;98475.69;82085;1294;3011435;-62
2023/07/08 07:29:38;;;;;;;9.00;5.60;;;;;;;27.94;53.90;98481.76;80841;1295;3052289;-63
2023/07/08 07:32:06;;;;;;;6.30;4.90;;;;;;;28.18;53.07;98483.97;80757;1295;3048565;-66
2023/07/08 07:34:33;;;;;;;10.70;4.70;;;;;;;28.28;52.01;98493.39;82125;1295;3013028;-63
2023/07/08 07:36:59;;;;;;;8.40;4.90;;;;;;;28.28;51.29;98493.73;82087;1295;3011202;-64
2023/07/08 07:39:28;;;;;;;6.30;4.70;;;;;;;28.54;51.24;98493.80;80817;1295;3050119;-64
2023/07/08 07:41:54;;;;;;;8.70;4.60;;;;;;;28.89;50.26;98491.11;82093;1296;3012614;-63
2023/07/08 07:44:21;;;;;;;8.80;4.80;;;;;;;29.12;49.72;98484.41;82127;1295;3011276;-63
2023/07/08 07:46:49;;;;;;;10.30;4.60;;;;;;;29.10;49.64;98489.56;80844;1295;3049859;-62
2023/07/08 07:49:16;;;;;;;6.10;4.60;;;;;;;29.15;49.95;98502.54;82137;1295;3013196;-62
2023/07/08 07:51:42;;;;;;;7.40;5.60;;;;;;;29.44;49.51;98505.77;82061;1298;3011368;-62
2023/07/08 07:54:10;;;;;;;11.40;5.50;;;;;;;29.61;49.06;98508.33;80869;1295;3052606;-61
2023/07/08 07:56:37;;;;;;;9.60;6.20;;;;;;;29.73;48.87;98509.67;82116;1295;3012793;-63
2023/07/08 07:59:03;;;;;;;17.00;6.90;;;;;;;29.77;48.81;98506.16;82074;1295;3011382;-62
2023/07/08 08:01:32;;;;;;;8.60;6.40;;;;;;;29.88;48.68;98515.65;80824;1295;3025830;-62
2023/07/08 08:03:58;;;;;;;7.50;5.70;;;;;;;29.95;48.33;98520.45;82114;1295;3013158;-62
2023/07/08 08:06:25;;;;;;;8.10;5.40;;;;;;;29.98;48.30;98511.09;82089;1295;3011712;-64
2023/07/08 08:08:53;;;;;;;7.90;5.20;;;;;;;30.02;48.45;98508.02;80822;1296;3026577;-63
2023/07/08 08:11:19;;;;;;;12.90;5.00;;;;;;;30.12;48.07;98502.72;82119;1295;3018981;-63
2023/07/08 08:13:46;;;;;;;7.50;5.20;;;;;;;30.28;47.80;98497.52;82089;1294;3011355;-63
2023/07/08 08:16:14;;;;;;;8.80;4.30;;;;;;;30.33;47.30;98502.75;80817;1295;3026359;-61
2023/07/08 08:18:40;;;;;;;10.30;4.90;;;;;;;30.36;47.02;98493.53;82092;1295;3018852;-62
2023/07/08 08:21:07;;;;;;;13.50;4.90;;;;;;;30.37;46.45;98487.42;82081;1295;3011218;-63
2023/07/08 08:23:35;;;;;;;11.50;4.20;;;;;;;30.46;46.00;98492.45;80840;1295;3026790;-63
2023/07/08 08:26:02;;;;;;;10.20;4.60;;;;;;;30.65;44.76;98491.67;82151;1294;3012634;-63
2023/07/08 08:28:29;;;;;;;5.50;3.70;;;;;;;30.65;43.96;98487.94;82095;1295;3011263;-63
2023/07/08 08:30:56;;;;;;;6.40;3.80;;;;;;;30.55;44.42;98488.85;80851;1295;3025827;-64
2023/07/08 08:33:23;;;;;;;10.10;4.40;;;;;;;30.55;44.04;98489.73;82121;1295;3018797;-62
2023/07/08 08:35:50;;;;;;;8.50;4.30;;;;;;;30.63;44.42;98488.52;82112;1295;3011177;-62
2023/07/08 08:38:17;;;;;;;6.90;3.70;;;;;;;30.75;44.03;98492.16;80812;1295;3026613;-62
2023/07/08 08:40:44;;;;;;;8.70;4.00;;;;;;;30.95;43.57;98491.77;82153;1294;3018790;-62
2023/07/08 08:43:18;;;;;;;8.10;3.80;;;;;;;31.12;42.45;98492.46;82102;1295;3011438;-62
2023/07/08 08:45:55;;;;;;;6.70;4.00;;;;;;;31.31;41.67;98486.41;80761;1295;3051814;-62
2023/07/08 08:48:23;;;;;;;11.10;3.90;;;;;;;31.46;41.27;98485.55;80876;1295;3053553;-63
2023/07/08 08:51:00;;;;;;;8.40;3.60;;;;;;;31.62;40.72;98485.27;81976;1297;3012575;-64
2023/07/08 08:53:28;;;;;;;7.30;3.80;;;;;;;31.73;40.13;98483.80;80761;1295;3052116;-62
2023/07/08 08:56:00;;;;;;;13.00;6.90;;;;;;;31.76;39.56;98488.73;82125;1295;3012560;-63
2023/07/08 08:58:43;;;;;;;8.00;5.10;;;;;;;31.87;40.16;98490.27;80714;1295;3052452;-63
2023/07/08 09:01:12;;;;;;;17.50;4.40;;;;;;;31.96;39.85;98490.36;80690;1295;3050698;-67
2023/07/08 09:03:54;;;;;;;8.70;3.60;;;;;;;31.96;40.06;98483.34;82128;1295;3012876;-64
2023/07/08 09:06:34;;;;;;;7.50;3.20;;;;;;;32.06;39.34;98481.31;80738;1295;3068222;-65
2023/07/08 09:09:27;;;;;;;9.00;3.40;;;;;;;32.10;39.17;98493.23;80768;1295;3051995;-69
2023/07/08 09:12:09;;;;;;;7.90;3.70;;;;;;;32.06;39.65;98494.94;80693;1294;3056502;-69
2023/07/08 09:14:39;;;;;;;10.30;3.50;;;;;;;32.04;40.14;98496.98;80747;1295;3049073;-69
2023/07/08 09:17:36;;;;;;;9.90;3.40;;;;;;;32.01;40.86;98492.77;82079;1298;3012456;-62
2023/07/08 09:20:23;;;;;;;8.70;3.40;;;;;;;32.23;40.45;98491.92;80751;1295;3053157;-69
2023/07/08 09:22:56;;;;;;;7.40;3.30;;;;;;;32.45;40.43;98486.65;80875;1295;3052290;-65
2023/07/08 09:25:32;;;;;;;6.30;3.90;;;;;;;32.66;39.97;98490.33;81941;1298;3011387;-66
2023/07/08 09:28:00;;;;;;;5.20;3.50;;;;;;;32.67;40.33;98487.89;80855;1295;3050918;-72
2023/07/08 09:30:30;;;;;;;8.20;3.20;;;;;;;32.75;40.52;98489.13;82058;1295;3011515;-64
2023/07/08 09:33:02;;;;;;;7.80;3.50;;;;;;;32.66;40.50;98483.55;81527;1295;3011294;-67
2023/07/08 09:35:38;;;;;;;10.80;3.50;;;;;;;32.81;40.53;98492.96;80061;1295;3011288;-65
2023/07/08 09:38:07;;;;;;;6.40;3.20;;;;;;;33.01;39.87;98486.70;80807;1295;3049045;-65
2023/07/08 09:40:34;;;;;;;8.30;3.60;;;;;;;33.14;39.52;98485.45;82111;1295;3012858;-69
2023/07/08 09:43:02;;;;;;;10.50;3.50;;;;;;;33.34;39.02;98482.38;82031;1295;3011252;-69
2023/07/08 09:45:40;;;;;;;5.60;3.00;;;;;;;33.63;37.75;98469.93;80676;1296;3050051;-67
2023/07/08 09:48:15;;;;;;;10.70;3.60;;;;;;;33.64;36.44;98465.63;80764;1295;3057579;-65
2023/07/08 09:50:46;;;;;;;6.00;3.30;;;;;;;33.77;36.60;98463.92;81433;1295;3011247;-63
2023/07/08 09:53:13;;;;;;;5.80;2.70;;;;;;;33.96;35.90;98461.77;81986;1295;3011454;-65
2023/07/08 09:55:40;;;;;;;13.80;3.30;;;;;;;33.95;35.75;98456.48;82071;1295;3011423;-65
2023/07/08 09:58:13;;;;;;;10.60;3.10;;;;;;;33.90;35.78;98458.99;80811;1295;3051884;-64
2023/07/08 10:00:41;;;;;;;11.00;3.10;;;;;;;33.87;35.74;98456.61;82009;1298;3011068;-63
2023/07/08 10:03:17;;;;;;;7.90;3.00;;;;;;;33.87;36.11;98459.11;80773;1295;3067401;-62
2023/07/08 10:05:46;;;;;;;8.00;3.40;;;;;;;33.80;36.29;98461.20;80783;1296;3051084;-68
2023/07/08 10:08:18;;;;;;;9.20;3.10;;;;;;;33.55;36.61;98465.38;82056;1295;3013072;-66
2023/07/08 10:11:03;;;;;;;6.30;3.60;;;;;;;33.51;36.93;98467.38;80780;1299;3052010;-65
2023/07/08 10:13:40;;;;;;;8.10;3.40;;;;;;;33.65;36.73;98464.16;80734;1295;3049485;-67
2023/07/08 10:16:27;;;;;;;6.40;3.20;;;;;;;33.73;36.59;98464.13;80657;1301;3053109;-59
2023/07/08 10:18:55;;;;;;;9.80;4.00;;;;;;;33.57;36.91;98456.08;80788;1295;3052692;-63
2023/07/08 10:21:33;;;;;;;7.70;4.10;;;;;;;33.68;36.86;98457.79;82071;1295;3012668;-64
2023/07/08 10:24:26;;;;;;;7.90;4.50;;;;;;;33.94;36.53;98452.89;80795;1295;3056345;-62
2023/07/08 10:27:04;;;;;;;;;;;;;;;34.14;35.94;98448.16;80789;1295;3049073;-64
2023/07/08 10:29:43;;;;;;;7.40;3.90;;;;;;;34.12;36.37;98444.41;80730;1296;3053073;-67
2023/07/08 10:32:43;;;;;;;8.50;4.20;;;;;;;34.21;36.01;98436.13;80787;1295;3049530;-63
2023/07/08 10:35:20;;;;;;;8.80;4.70;;;;;;;34.29;36.03;98441.14;80751;1295;3052641;-66
2023/07/08 10:38:01;;;;;;;5.30;3.60;;;;;;;34.42;36.05;98435.91;80741;1300;3053352;-64
2023/07/08 10:40:54;;;;;;;10.20;4.30;;;;;;;34.50;35.37;98426.14;80836;1294;3069285;-64
2023/07/08 10:43:26;;;;;;;6.90;3.20;;;;;;;34.62;35.16;98428.66;80756;1296;3051340;-63
2023/07/08 10:45:52;;;;;;;9.30;4.30;;;;;;;34.57;35.04;98426.39;81962;1295;3011255;-64
2023/07/08 10:48:32;;;;;;;14.90;5.40;;;;;;;34.54;35.52;98424.80;80810;1295;3026974;-67
2023/07/08 10:51:12;;;;;;;6.10;4.50;;;;;;;34.62;35.86;98426.48;80777;1296;3053644;-61
2023/07/08 10:53:52;;;;;;;9.40;4.30;;;;;;;34.82;35.47;98424.54;80818;1295;3048821;-62
2023/07/08 10:56:23;;;;;;;8.70;4.30;;;;;;;34.90;34.94;98418.09;80824;1295;3051337;-66
2023/07/08 10:58:49;;;;;;;10.20;3.50;;;;;;;35.11;34.48;98418.10;82031;1298;3011303;-65
2023/07/08 11:01:30;;;;;;;9.00;3.60;;;;;;;35.32;32.69;98412.39;81508;1296;3011351;-64
2023/07/08 11:04:16;;;;;;;8.20;3.30;;;;;;;35.21;32.65;98416.03;80816;1294;3051723;-61
2023/07/08 11:06:55;;;;;;;6.20;3.30;;;;;;;34.88;32.61;98421.69;80693;1295;3056293;-61
2023/07/08 11:09:30;;;;;;;5.10;3.00;;;;;;;34.97;32.77;98429.79;80679;1295;3049316;-65
2023/07/08 11:12:12;;;;;;;9.70;3.40;;;;;;;35.02;32.21;98426.66;81486;1295;3011122;-63
2023/07/08 11:14:50;;;;;;;12.00;3.30;;;;;;;35.15;32.06;98419.55;80761;1295;3053341;-64
2023/07/08 11:17:23;;;;;;;8.60;3.20;;;;;;;35.39;31.47;98413.56;80771;1295;3050464;-65
2023/07/08 11:20:00;;;;;;;7.50;3.40;;;;;;;35.61;31.12;98408.56;81990;1295;3011527;-66
2023/07/08 11:22:28;;;;;;;7.60;2.60;;;;;;;35.64;30.32;98409.20;80728;1298;3052304;-62
2023/07/08 11:24:54;;;;;;;9.70;2.70;;;;;;;35.76;29.24;98400.32;82084;1295;3017992;-64
2023/07/08 11:27:30;;;;;;;7.90;2.70;;;;;;;35.69;29.79;98399.38;81989;1295;3011189;-63
2023/07/08 11:30:25;;;;;;;5.30;2.70;;;;;;;35.78;29.99;98397.41;80777;1295;3048964;-62